sensor_id;sensor_type;location;lat;lon;timestamp;P1;durP1;ratioP1;P2;durP2;ratioP2
7653;SDS011;3869;48.406;10.774;2022-10-14T00:00:47;1.50;;;1.47;;
7653;SDS011;3869;48.406;10.774;2022-10-14T00:03:15;2.17;;;1.73;;
7653;SDS011;3869;48.406;10.774;2022-10-14T00:05:43;2.60;;;2.00;;
7653;SDS011;3869;48.406;10.774;2022-10-14T00:08:11;1.33;;;1.20;;
7653;SDS011;3869;48.406;10.774;2022-10-14T00:10:39;2.30;;;1.50;;
7653;SDS011;3869;48.406;10.774;2022-10-14T00:13:08;5.07;;;1.70;;
7653;SDS011;3869;48.406;10.774;2022-10-14T00:15:36;1.00;;;1.00;;
7653;SDS011;3869;48.406;10.774;2022-10-14T00:18:05;1.93;;;1.80;;
7653;SDS011;3869;48.406;10.774;2022-10-14T00:20:34;2.00;;;1.43;;
7653;SDS011;3869;48.406;10.774;2022-10-14T00:23:02;2.03;;;1.83;;
7653;SDS011;3869;48.406;10.774;2022-10-14T00:25:30;1.20;;;1.10;;
7653;SDS011;3869;48.406;10.774;2022-10-14T00:28:03;3.23;;;1.57;;
7653;SDS011;3869;48.406;10.774;2022-10-14T00:30:32;1.30;;;1.23;;
7653;SDS011;3869;48.406;10.774;2022-10-14T00:33:01;5.27;;;1.67;;
7653;SDS011;3869;48.406;10.774;2022-10-14T00:35:28;1.80;;;1.70;;
7653;SDS011;3869;48.406;10.774;2022-10-14T00:37:57;1.37;;;1.37;;
7653;SDS011;3869;48.406;10.774;2022-10-14T00:40:25;2.80;;;2.47;;
7653;SDS011;3869;48.406;10.774;2022-10-14T00:42:53;1.80;;;1.70;;
7653;SDS011;3869;48.406;10.774;2022-10-14T00:45:22;1.80;;;1.70;;
7653;SDS011;3869;48.406;10.774;2022-10-14T00:47:53;2.47;;;2.10;;
7653;SDS011;3869;48.406;10.774;2022-10-14T00:50:21;5.50;;;1.77;;
7653;SDS011;3869;48.406;10.774;2022-10-14T00:52:49;3.07;;;1.30;;
7653;SDS011;3869;48.406;10.774;2022-10-14T00:55:17;1.07;;;1.07;;
7653;SDS011;3869;48.406;10.774;2022-10-14T00:57:45;1.60;;;1.50;;
7653;SDS011;3869;48.406;10.774;2022-10-14T01:00:14;2.03;;;1.87;;
7653;SDS011;3869;48.406;10.774;2022-10-14T01:02:44;1.87;;;1.70;;
7653;SDS011;3869;48.406;10.774;2022-10-14T01:05:15;1.50;;;1.40;;
7653;SDS011;3869;48.406;10.774;2022-10-14T01:07:49;1.23;;;1.23;;
7653;SDS011;3869;48.406;10.774;2022-10-14T01:10:30;2.37;;;2.27;;
7653;SDS011;3869;48.406;10.774;2022-10-14T01:13:08;1.50;;;1.40;;
7653;SDS011;3869;48.406;10.774;2022-10-14T01:15:47;1.10;;;1.10;;
7653;SDS011;3869;48.406;10.774;2022-10-14T01:18:25;1.60;;;1.50;;
7653;SDS011;3869;48.406;10.774;2022-10-14T01:21:10;2.00;;;1.90;;
7653;SDS011;3869;48.406;10.774;2022-10-14T01:23:48;1.40;;;1.30;;
7653;SDS011;3869;48.406;10.774;2022-10-14T01:26:40;4.60;;;1.97;;
7653;SDS011;3869;48.406;10.774;2022-10-14T01:29:20;5.40;;;1.67;;
7653;SDS011;3869;48.406;10.774;2022-10-14T01:32:09;2.30;;;2.13;;
7653;SDS011;3869;48.406;10.774;2022-10-14T01:34:41;1.57;;;1.47;;
7653;SDS011;3869;48.406;10.774;2022-10-14T01:37:16;6.33;;;2.00;;
7653;SDS011;3869;48.406;10.774;2022-10-14T01:39:49;1.53;;;1.43;;
7653;SDS011;3869;48.406;10.774;2022-10-14T01:42:22;1.70;;;1.60;;
7653;SDS011;3869;48.406;10.774;2022-10-14T01:44:54;1.50;;;1.40;;
7653;SDS011;3869;48.406;10.774;2022-10-14T01:47:27;4.73;;;3.10;;
7653;SDS011;3869;48.406;10.774;2022-10-14T01:50:00;1.97;;;1.47;;
7653;SDS011;3869;48.406;10.774;2022-10-14T01:52:32;2.83;;;2.53;;
7653;SDS011;3869;48.406;10.774;2022-10-14T01:55:05;1.27;;;1.27;;
7653;SDS011;3869;48.406;10.774;2022-10-14T01:57:37;1.70;;;1.60;;
7653;SDS011;3869;48.406;10.774;2022-10-14T02:00:08;1.80;;;1.70;;
7653;SDS011;3869;48.406;10.774;2022-10-14T02:02:39;3.17;;;1.90;;
7653;SDS011;3869;48.406;10.774;2022-10-14T02:05:09;2.97;;;2.77;;
7653;SDS011;3869;48.406;10.774;2022-10-14T02:07:43;4.73;;;2.43;;
7653;SDS011;3869;48.406;10.774;2022-10-14T02:10:17;3.53;;;2.47;;
7653;SDS011;3869;48.406;10.774;2022-10-14T02:12:55;1.97;;;1.87;;
7653;SDS011;3869;48.406;10.774;2022-10-14T02:15:38;2.50;;;1.47;;
7653;SDS011;3869;48.406;10.774;2022-10-14T02:18:13;1.57;;;1.30;;
7653;SDS011;3869;48.406;10.774;2022-10-14T02:20:52;3.73;;;1.77;;
7653;SDS011;3869;48.406;10.774;2022-10-14T02:23:24;1.53;;;1.43;;
7653;SDS011;3869;48.406;10.774;2022-10-14T02:25:56;2.20;;;2.00;;
7653;SDS011;3869;48.406;10.774;2022-10-14T02:28:26;3.17;;;2.00;;
7653;SDS011;3869;48.406;10.774;2022-10-14T02:30:58;2.87;;;1.90;;
7653;SDS011;3869;48.406;10.774;2022-10-14T02:33:32;1.87;;;1.73;;
7653;SDS011;3869;48.406;10.774;2022-10-14T02:36:04;2.57;;;2.37;;
7653;SDS011;3869;48.406;10.774;2022-10-14T02:38:33;3.03;;;2.20;;
7653;SDS011;3869;48.406;10.774;2022-10-14T02:41:03;2.47;;;1.90;;
7653;SDS011;3869;48.406;10.774;2022-10-14T02:43:34;1.90;;;1.67;;
7653;SDS011;3869;48.406;10.774;2022-10-14T02:46:02;3.63;;;2.47;;
7653;SDS011;3869;48.406;10.774;2022-10-14T02:48:33;3.90;;;1.93;;
7653;SDS011;3869;48.406;10.774;2022-10-14T02:51:01;2.27;;;2.07;;
7653;SDS011;3869;48.406;10.774;2022-10-14T02:53:29;2.70;;;2.50;;
7653;SDS011;3869;48.406;10.774;2022-10-14T02:55:58;2.43;;;2.20;;
7653;SDS011;3869;48.406;10.774;2022-10-14T02:58:26;2.57;;;2.47;;
7653;SDS011;3869;48.406;10.774;2022-10-14T03:00:53;1.93;;;1.50;;
7653;SDS011;3869;48.406;10.774;2022-10-14T03:03:21;3.03;;;1.40;;
7653;SDS011;3869;48.406;10.774;2022-10-14T03:05:51;3.60;;;2.07;;
7653;SDS011;3869;48.406;10.774;2022-10-14T03:08:19;2.20;;;1.67;;
7653;SDS011;3869;48.406;10.774;2022-10-14T03:10:47;4.77;;;1.97;;
7653;SDS011;3869;48.406;10.774;2022-10-14T03:13:15;1.43;;;1.33;;
7653;SDS011;3869;48.406;10.774;2022-10-14T03:15:43;2.97;;;1.90;;
7653;SDS011;3869;48.406;10.774;2022-10-14T03:18:13;2.77;;;1.70;;
7653;SDS011;3869;48.406;10.774;2022-10-14T03:20:42;1.83;;;1.73;;
7653;SDS011;3869;48.406;10.774;2022-10-14T03:23:12;2.10;;;1.30;;
7653;SDS011;3869;48.406;10.774;2022-10-14T03:25:42;1.83;;;1.73;;
7653;SDS011;3869;48.406;10.774;2022-10-14T03:28:11;3.20;;;2.23;;
7653;SDS011;3869;48.406;10.774;2022-10-14T03:30:39;1.53;;;1.43;;
7653;SDS011;3869;48.406;10.774;2022-10-14T03:33:07;2.23;;;1.77;;
7653;SDS011;3869;48.406;10.774;2022-10-14T03:35:40;2.77;;;2.00;;
7653;SDS011;3869;48.406;10.774;2022-10-14T03:38:08;5.03;;;3.30;;
7653;SDS011;3869;48.406;10.774;2022-10-14T03:40:37;2.37;;;2.27;;
7653;SDS011;3869;48.406;10.774;2022-10-14T03:43:05;3.33;;;2.53;;
7653;SDS011;3869;48.406;10.774;2022-10-14T03:45:33;4.13;;;2.27;;
7653;SDS011;3869;48.406;10.774;2022-10-14T03:48:01;2.00;;;1.90;;
7653;SDS011;3869;48.406;10.774;2022-10-14T03:50:29;3.37;;;2.23;;
7653;SDS011;3869;48.406;10.774;2022-10-14T03:52:57;1.40;;;1.30;;
7653;SDS011;3869;48.406;10.774;2022-10-14T03:55:25;2.43;;;2.13;;
7653;SDS011;3869;48.406;10.774;2022-10-14T03:57:56;1.73;;;1.63;;
7653;SDS011;3869;48.406;10.774;2022-10-14T04:00:24;3.03;;;2.13;;
7653;SDS011;3869;48.406;10.774;2022-10-14T04:02:52;1.53;;;1.30;;
7653;SDS011;3869;48.406;10.774;2022-10-14T04:05:20;3.07;;;1.93;;
7653;SDS011;3869;48.406;10.774;2022-10-14T04:07:48;3.43;;;2.10;;
7653;SDS011;3869;48.406;10.774;2022-10-14T04:10:16;2.70;;;2.50;;
7653;SDS011;3869;48.406;10.774;2022-10-14T04:12:44;2.13;;;2.00;;
7653;SDS011;3869;48.406;10.774;2022-10-14T04:15:15;2.20;;;1.93;;
7653;SDS011;3869;48.406;10.774;2022-10-14T04:17:43;2.47;;;1.60;;
7653;SDS011;3869;48.406;10.774;2022-10-14T04:20:11;1.70;;;1.60;;
7653;SDS011;3869;48.406;10.774;2022-10-14T04:22:39;1.70;;;1.60;;
7653;SDS011;3869;48.406;10.774;2022-10-14T04:25:07;15.73;;;1.73;;
7653;SDS011;3869;48.406;10.774;2022-10-14T04:27:36;1.33;;;1.23;;
7653;SDS011;3869;48.406;10.774;2022-10-14T04:30:04;1.77;;;1.67;;
7653;SDS011;3869;48.406;10.774;2022-10-14T04:32:34;1.53;;;1.43;;
7653;SDS011;3869;48.406;10.774;2022-10-14T04:35:02;1.63;;;1.53;;
7653;SDS011;3869;48.406;10.774;2022-10-14T04:37:30;1.80;;;1.70;;
7653;SDS011;3869;48.406;10.774;2022-10-14T04:39:59;2.03;;;1.93;;
7653;SDS011;3869;48.406;10.774;2022-10-14T04:42:27;2.17;;;1.40;;
7653;SDS011;3869;48.406;10.774;2022-10-14T04:44:55;0.80;;;0.80;;
7653;SDS011;3869;48.406;10.774;2022-10-14T04:47:23;2.20;;;1.90;;
7653;SDS011;3869;48.406;10.774;2022-10-14T04:49:52;2.40;;;2.07;;
7653;SDS011;3869;48.406;10.774;2022-10-14T04:52:20;1.77;;;1.47;;
7653;SDS011;3869;48.406;10.774;2022-10-14T04:54:49;2.53;;;1.70;;
7653;SDS011;3869;48.406;10.774;2022-10-14T04:57:17;1.80;;;1.70;;
7653;SDS011;3869;48.406;10.774;2022-10-14T04:59:44;2.20;;;2.07;;
7653;SDS011;3869;48.406;10.774;2022-10-14T05:02:12;1.27;;;1.17;;
7653;SDS011;3869;48.406;10.774;2022-10-14T05:04:41;4.33;;;2.20;;
7653;SDS011;3869;48.406;10.774;2022-10-14T05:07:10;1.80;;;1.70;;
7653;SDS011;3869;48.406;10.774;2022-10-14T05:09:38;4.20;;;1.67;;
7653;SDS011;3869;48.406;10.774;2022-10-14T05:12:12;1.40;;;1.30;;
7653;SDS011;3869;48.406;10.774;2022-10-14T05:14:40;1.73;;;1.63;;
7653;SDS011;3869;48.406;10.774;2022-10-14T05:17:08;1.20;;;1.10;;
7653;SDS011;3869;48.406;10.774;2022-10-14T05:19:36;1.33;;;1.33;;
7653;SDS011;3869;48.406;10.774;2022-10-14T05:22:04;1.67;;;1.57;;
7653;SDS011;3869;48.406;10.774;2022-10-14T05:24:34;1.50;;;1.40;;
7653;SDS011;3869;48.406;10.774;2022-10-14T05:27:02;1.40;;;1.30;;
7653;SDS011;3869;48.406;10.774;2022-10-14T05:29:30;1.73;;;1.63;;
7653;SDS011;3869;48.406;10.774;2022-10-14T05:31:58;1.70;;;1.60;;
7653;SDS011;3869;48.406;10.774;2022-10-14T05:34:26;2.47;;;2.23;;
7653;SDS011;3869;48.406;10.774;2022-10-14T05:36:54;2.10;;;1.90;;
7653;SDS011;3869;48.406;10.774;2022-10-14T05:39:22;3.03;;;2.30;;
7653;SDS011;3869;48.406;10.774;2022-10-14T05:41:51;1.77;;;1.60;;
7653;SDS011;3869;48.406;10.774;2022-10-14T05:44:19;1.80;;;1.70;;
7653;SDS011;3869;48.406;10.774;2022-10-14T05:46:47;2.03;;;1.93;;
7653;SDS011;3869;48.406;10.774;2022-10-14T05:49:15;2.00;;;1.80;;
7653;SDS011;3869;48.406;10.774;2022-10-14T05:51:43;2.70;;;1.90;;
7653;SDS011;3869;48.406;10.774;2022-10-14T05:54:11;2.77;;;2.53;;
7653;SDS011;3869;48.406;10.774;2022-10-14T05:56:39;2.33;;;2.13;;
7653;SDS011;3869;48.406;10.774;2022-10-14T05:59:09;2.70;;;2.23;;
7653;SDS011;3869;48.406;10.774;2022-10-14T06:01:38;4.97;;;1.80;;
7653;SDS011;3869;48.406;10.774;2022-10-14T06:04:06;1.70;;;1.60;;
7653;SDS011;3869;48.406;10.774;2022-10-14T06:06:34;2.03;;;1.93;;
7653;SDS011;3869;48.406;10.774;2022-10-14T06:09:02;1.43;;;1.33;;
7653;SDS011;3869;48.406;10.774;2022-10-14T06:11:36;1.40;;;1.27;;
7653;SDS011;3869;48.406;10.774;2022-10-14T06:14:04;1.50;;;1.30;;
7653;SDS011;3869;48.406;10.774;2022-10-14T06:16:33;4.40;;;1.60;;
7653;SDS011;3869;48.406;10.774;2022-10-14T06:19:01;2.20;;;1.60;;
7653;SDS011;3869;48.406;10.774;2022-10-14T06:21:30;2.10;;;1.43;;
7653;SDS011;3869;48.406;10.774;2022-10-14T06:23:57;8.33;;;3.03;;
7653;SDS011;3869;48.406;10.774;2022-10-14T06:26:25;2.87;;;1.27;;
7653;SDS011;3869;48.406;10.774;2022-10-14T06:28:53;1.60;;;1.50;;
7653;SDS011;3869;48.406;10.774;2022-10-14T06:31:21;7.90;;;1.33;;
7653;SDS011;3869;48.406;10.774;2022-10-14T06:33:57;2.00;;;1.40;;
7653;SDS011;3869;48.406;10.774;2022-10-14T06:36:26;2.20;;;1.60;;
7653;SDS011;3869;48.406;10.774;2022-10-14T06:38:53;3.97;;;1.67;;
7653;SDS011;3869;48.406;10.774;2022-10-14T06:41:22;4.20;;;1.93;;
7653;SDS011;3869;48.406;10.774;2022-10-14T06:43:50;1.50;;;1.50;;
7653;SDS011;3869;48.406;10.774;2022-10-14T06:46:18;1.70;;;1.60;;
7653;SDS011;3869;48.406;10.774;2022-10-14T06:48:46;1.83;;;1.67;;
7653;SDS011;3869;48.406;10.774;2022-10-14T06:51:17;1.20;;;1.20;;
7653;SDS011;3869;48.406;10.774;2022-10-14T06:53:45;2.90;;;1.63;;
7653;SDS011;3869;48.406;10.774;2022-10-14T06:56:13;1.17;;;1.17;;
7653;SDS011;3869;48.406;10.774;2022-10-14T06:58:41;0.93;;;0.93;;
7653;SDS011;3869;48.406;10.774;2022-10-14T07:01:09;2.07;;;1.57;;
7653;SDS011;3869;48.406;10.774;2022-10-14T07:03:37;7.30;;;1.43;;
7653;SDS011;3869;48.406;10.774;2022-10-14T07:06:06;4.77;;;1.97;;
7653;SDS011;3869;48.406;10.774;2022-10-14T07:08:36;1.93;;;1.20;;
7653;SDS011;3869;48.406;10.774;2022-10-14T07:11:05;1.50;;;1.50;;
7653;SDS011;3869;48.406;10.774;2022-10-14T07:13:33;1.83;;;1.73;;
7653;SDS011;3869;48.406;10.774;2022-10-14T07:16:01;1.43;;;1.43;;
7653;SDS011;3869;48.406;10.774;2022-10-14T07:18:29;1.73;;;1.73;;
7653;SDS011;3869;48.406;10.774;2022-10-14T07:21:00;2.60;;;1.87;;
7653;SDS011;3869;48.406;10.774;2022-10-14T07:23:28;2.33;;;2.13;;
7653;SDS011;3869;48.406;10.774;2022-10-14T07:25:58;3.20;;;1.73;;
7653;SDS011;3869;48.406;10.774;2022-10-14T07:28:27;1.30;;;1.30;;
7653;SDS011;3869;48.406;10.774;2022-10-14T07:30:56;1.33;;;1.23;;
7653;SDS011;3869;48.406;10.774;2022-10-14T07:33:25;5.50;;;1.90;;
7653;SDS011;3869;48.406;10.774;2022-10-14T07:35:53;5.63;;;1.37;;
7653;SDS011;3869;48.406;10.774;2022-10-14T07:38:21;13.63;;;1.67;;
7653;SDS011;3869;48.406;10.774;2022-10-14T07:40:56;1.40;;;1.30;;
7653;SDS011;3869;48.406;10.774;2022-10-14T07:43:27;1.40;;;1.40;;
7653;SDS011;3869;48.406;10.774;2022-10-14T07:45:55;1.53;;;1.00;;
7653;SDS011;3869;48.406;10.774;2022-10-14T07:48:28;1.17;;;1.17;;
7653;SDS011;3869;48.406;10.774;2022-10-14T07:51:17;3.37;;;1.60;;
7653;SDS011;3869;48.406;10.774;2022-10-14T07:53:45;1.43;;;1.00;;
7653;SDS011;3869;48.406;10.774;2022-10-14T07:56:15;1.33;;;1.33;;
7653;SDS011;3869;48.406;10.774;2022-10-14T07:58:43;1.40;;;1.30;;
7653;SDS011;3869;48.406;10.774;2022-10-14T08:01:11;1.23;;;1.23;;
7653;SDS011;3869;48.406;10.774;2022-10-14T08:03:41;1.10;;;1.10;;
7653;SDS011;3869;48.406;10.774;2022-10-14T08:06:09;0.90;;;0.90;;
7653;SDS011;3869;48.406;10.774;2022-10-14T08:08:38;0.90;;;0.90;;
7653;SDS011;3869;48.406;10.774;2022-10-14T08:11:07;12.63;;;1.33;;
7653;SDS011;3869;48.406;10.774;2022-10-14T08:13:38;0.90;;;0.90;;
7653;SDS011;3869;48.406;10.774;2022-10-14T08:16:12;0.87;;;0.87;;
7653;SDS011;3869;48.406;10.774;2022-10-14T08:18:42;2.77;;;1.53;;
7653;SDS011;3869;48.406;10.774;2022-10-14T08:21:11;0.90;;;0.90;;
7653;SDS011;3869;48.406;10.774;2022-10-14T08:23:39;0.87;;;0.87;;
7653;SDS011;3869;48.406;10.774;2022-10-14T08:26:14;1.30;;;1.30;;
7653;SDS011;3869;48.406;10.774;2022-10-14T08:28:47;7.00;;;0.80;;
7653;SDS011;3869;48.406;10.774;2022-10-14T08:31:16;0.90;;;0.80;;
7653;SDS011;3869;48.406;10.774;2022-10-14T08:33:44;4.70;;;1.43;;
7653;SDS011;3869;48.406;10.774;2022-10-14T08:36:12;1.73;;;1.10;;
7653;SDS011;3869;48.406;10.774;2022-10-14T08:38:40;2.40;;;1.20;;
7653;SDS011;3869;48.406;10.774;2022-10-14T08:41:14;8.30;;;1.00;;
7653;SDS011;3869;48.406;10.774;2022-10-14T08:43:53;3.90;;;1.13;;
7653;SDS011;3869;48.406;10.774;2022-10-14T08:46:33;1.20;;;1.20;;
7653;SDS011;3869;48.406;10.774;2022-10-14T08:49:06;0.73;;;0.73;;
7653;SDS011;3869;48.406;10.774;2022-10-14T08:51:40;1.33;;;1.23;;
7653;SDS011;3869;48.406;10.774;2022-10-14T08:54:13;1.10;;;0.67;;
7653;SDS011;3869;48.406;10.774;2022-10-14T08:56:47;1.03;;;0.73;;
7653;SDS011;3869;48.406;10.774;2022-10-14T08:59:17;1.17;;;0.90;;
7653;SDS011;3869;48.406;10.774;2022-10-14T09:01:48;0.83;;;0.83;;
7653;SDS011;3869;48.406;10.774;2022-10-14T09:04:18;1.13;;;1.13;;
7653;SDS011;3869;48.406;10.774;2022-10-14T09:06:48;0.60;;;0.60;;
7653;SDS011;3869;48.406;10.774;2022-10-14T09:09:19;0.90;;;0.90;;
7653;SDS011;3869;48.406;10.774;2022-10-14T09:11:52;1.23;;;1.00;;
7653;SDS011;3869;48.406;10.774;2022-10-14T09:14:25;0.57;;;0.57;;
7653;SDS011;3869;48.406;10.774;2022-10-14T09:16:59;1.63;;;1.00;;
7653;SDS011;3869;48.406;10.774;2022-10-14T09:19:32;6.73;;;0.87;;
7653;SDS011;3869;48.406;10.774;2022-10-14T09:22:07;0.83;;;0.70;;
7653;SDS011;3869;48.406;10.774;2022-10-14T09:24:39;4.03;;;0.80;;
7653;SDS011;3869;48.406;10.774;2022-10-14T09:27:10;0.70;;;0.67;;
7653;SDS011;3869;48.406;10.774;2022-10-14T09:29:44;0.80;;;0.80;;
7653;SDS011;3869;48.406;10.774;2022-10-14T09:32:15;0.87;;;0.83;;
7653;SDS011;3869;48.406;10.774;2022-10-14T09:34:53;0.60;;;0.60;;
7653;SDS011;3869;48.406;10.774;2022-10-14T09:37:24;2.37;;;1.10;;
7653;SDS011;3869;48.406;10.774;2022-10-14T09:39:54;0.70;;;0.70;;
7653;SDS011;3869;48.406;10.774;2022-10-14T09:42:26;0.70;;;0.70;;
7653;SDS011;3869;48.406;10.774;2022-10-14T09:45:08;0.63;;;0.63;;
7653;SDS011;3869;48.406;10.774;2022-10-14T09:47:39;0.70;;;0.70;;
7653;SDS011;3869;48.406;10.774;2022-10-14T09:50:19;0.87;;;0.80;;
7653;SDS011;3869;48.406;10.774;2022-10-14T09:52:53;2.93;;;0.67;;
7653;SDS011;3869;48.406;10.774;2022-10-14T09:55:26;1.17;;;0.90;;
7653;SDS011;3869;48.406;10.774;2022-10-14T09:57:57;0.90;;;0.90;;
7653;SDS011;3869;48.406;10.774;2022-10-14T10:00:31;0.70;;;0.63;;
7653;SDS011;3869;48.406;10.774;2022-10-14T10:03:03;0.60;;;0.60;;
7653;SDS011;3869;48.406;10.774;2022-10-14T10:05:32;0.60;;;0.60;;
7653;SDS011;3869;48.406;10.774;2022-10-14T10:08:03;0.83;;;0.83;;
7653;SDS011;3869;48.406;10.774;2022-10-14T10:10:36;0.80;;;0.70;;
7653;SDS011;3869;48.406;10.774;2022-10-14T10:13:05;0.90;;;0.90;;
7653;SDS011;3869;48.406;10.774;2022-10-14T10:15:56;0.60;;;0.60;;
7653;SDS011;3869;48.406;10.774;2022-10-14T10:18:25;1.00;;;1.00;;
7653;SDS011;3869;48.406;10.774;2022-10-14T10:21:04;1.10;;;1.00;;
7653;SDS011;3869;48.406;10.774;2022-10-14T10:23:34;0.83;;;0.83;;
7653;SDS011;3869;48.406;10.774;2022-10-14T10:26:15;2.17;;;0.97;;
7653;SDS011;3869;48.406;10.774;2022-10-14T10:28:46;0.83;;;0.83;;
7653;SDS011;3869;48.406;10.774;2022-10-14T10:31:26;1.17;;;1.10;;
7653;SDS011;3869;48.406;10.774;2022-10-14T10:34:29;0.87;;;0.87;;
7653;SDS011;3869;48.406;10.774;2022-10-14T10:37:18;0.80;;;0.80;;
7653;SDS011;3869;48.406;10.774;2022-10-14T10:39:55;2.70;;;1.27;;
7653;SDS011;3869;48.406;10.774;2022-10-14T10:42:32;1.63;;;1.30;;
7653;SDS011;3869;48.406;10.774;2022-10-14T10:45:05;1.90;;;1.17;;
7653;SDS011;3869;48.406;10.774;2022-10-14T10:47:44;1.40;;;1.00;;
7653;SDS011;3869;48.406;10.774;2022-10-14T10:50:24;0.93;;;0.93;;
7653;SDS011;3869;48.406;10.774;2022-10-14T10:55:51;0.93;;;0.87;;
7653;SDS011;3869;48.406;10.774;2022-10-14T10:58:32;1.07;;;0.97;;
7653;SDS011;3869;48.406;10.774;2022-10-14T11:01:10;1.07;;;0.73;;
7653;SDS011;3869;48.406;10.774;2022-10-14T11:03:55;0.60;;;0.60;;
7653;SDS011;3869;48.406;10.774;2022-10-14T11:06:34;0.67;;;0.67;;
7653;SDS011;3869;48.406;10.774;2022-10-14T11:09:29;4.40;;;1.17;;
7653;SDS011;3869;48.406;10.774;2022-10-14T11:12:20;0.90;;;0.90;;
7653;SDS011;3869;48.406;10.774;2022-10-14T11:15:03;1.00;;;1.00;;
7653;SDS011;3869;48.406;10.774;2022-10-14T11:17:48;0.93;;;0.93;;
7653;SDS011;3869;48.406;10.774;2022-10-14T11:20:24;9.10;;;0.90;;
7653;SDS011;3869;48.406;10.774;2022-10-14T11:23:06;0.80;;;0.80;;
7653;SDS011;3869;48.406;10.774;2022-10-14T11:25:56;2.40;;;1.47;;
7653;SDS011;3869;48.406;10.774;2022-10-14T11:28:31;0.93;;;0.93;;
7653;SDS011;3869;48.406;10.774;2022-10-14T11:31:10;0.70;;;0.70;;
7653;SDS011;3869;48.406;10.774;2022-10-14T11:33:48;0.63;;;0.63;;
7653;SDS011;3869;48.406;10.774;2022-10-14T11:36:28;0.80;;;0.80;;
7653;SDS011;3869;48.406;10.774;2022-10-14T11:39:16;0.70;;;0.70;;
7653;SDS011;3869;48.406;10.774;2022-10-14T11:41:58;0.87;;;0.87;;
7653;SDS011;3869;48.406;10.774;2022-10-14T11:44:37;1.27;;;1.13;;
7653;SDS011;3869;48.406;10.774;2022-10-14T11:47:08;0.60;;;0.60;;
7653;SDS011;3869;48.406;10.774;2022-10-14T11:49:42;0.73;;;0.73;;
7653;SDS011;3869;48.406;10.774;2022-10-14T11:52:16;1.23;;;1.13;;
7653;SDS011;3869;48.406;10.774;2022-10-14T11:54:50;1.17;;;0.67;;
7653;SDS011;3869;48.406;10.774;2022-10-14T11:57:24;14.23;;;1.10;;
7653;SDS011;3869;48.406;10.774;2022-10-14T11:59:58;2.80;;;1.10;;
7653;SDS011;3869;48.406;10.774;2022-10-14T12:02:46;1.17;;;1.17;;
7653;SDS011;3869;48.406;10.774;2022-10-14T12:05:24;0.80;;;0.80;;
7653;SDS011;3869;48.406;10.774;2022-10-14T12:08:04;1.20;;;1.20;;
7653;SDS011;3869;48.406;10.774;2022-10-14T12:10:41;0.80;;;0.80;;
7653;SDS011;3869;48.406;10.774;2022-10-14T12:13:12;1.43;;;0.70;;
7653;SDS011;3869;48.406;10.774;2022-10-14T12:15:43;2.00;;;1.47;;
7653;SDS011;3869;48.406;10.774;2022-10-14T12:18:15;0.90;;;0.83;;
7653;SDS011;3869;48.406;10.774;2022-10-14T12:20:46;0.70;;;0.70;;
7653;SDS011;3869;48.406;10.774;2022-10-14T12:23:22;1.80;;;0.90;;
7653;SDS011;3869;48.406;10.774;2022-10-14T12:25:57;0.80;;;0.80;;
7653;SDS011;3869;48.406;10.774;2022-10-14T12:28:33;0.97;;;0.97;;
7653;SDS011;3869;48.406;10.774;2022-10-14T12:31:19;1.23;;;0.50;;
7653;SDS011;3869;48.406;10.774;2022-10-14T12:36:49;1.63;;;1.07;;
7653;SDS011;3869;48.406;10.774;2022-10-14T12:39:26;0.63;;;0.63;;
7653;SDS011;3869;48.406;10.774;2022-10-14T12:42:01;1.10;;;1.10;;
7653;SDS011;3869;48.406;10.774;2022-10-14T12:44:32;0.70;;;0.70;;
7653;SDS011;3869;48.406;10.774;2022-10-14T12:47:02;0.83;;;0.83;;
7653;SDS011;3869;48.406;10.774;2022-10-14T12:49:31;1.07;;;0.67;;
7653;SDS011;3869;48.406;10.774;2022-10-14T12:52:01;0.60;;;0.60;;
7653;SDS011;3869;48.406;10.774;2022-10-14T12:54:34;3.60;;;0.70;;
7653;SDS011;3869;48.406;10.774;2022-10-14T12:57:04;0.80;;;0.80;;
7653;SDS011;3869;48.406;10.774;2022-10-14T12:59:41;0.67;;;0.67;;
7653;SDS011;3869;48.406;10.774;2022-10-14T13:02:17;4.10;;;0.77;;
7653;SDS011;3869;48.406;10.774;2022-10-14T13:04:58;0.70;;;0.70;;
7653;SDS011;3869;48.406;10.774;2022-10-14T13:07:39;0.73;;;0.73;;
7653;SDS011;3869;48.406;10.774;2022-10-14T13:10:38;0.97;;;0.63;;
7653;SDS011;3869;48.406;10.774;2022-10-14T13:25:16;1.00;;;0.90;;
7653;SDS011;3869;48.406;10.774;2022-10-14T13:27:49;0.80;;;0.80;;
7653;SDS011;3869;48.406;10.774;2022-10-14T13:30:31;2.50;;;1.10;;
7653;SDS011;3869;48.406;10.774;2022-10-14T13:33:04;0.80;;;0.80;;
7653;SDS011;3869;48.406;10.774;2022-10-14T13:35:44;0.70;;;0.70;;
7653;SDS011;3869;48.406;10.774;2022-10-14T13:38:18;0.73;;;0.73;;
7653;SDS011;3869;48.406;10.774;2022-10-14T13:40:49;0.50;;;0.50;;
7653;SDS011;3869;48.406;10.774;2022-10-14T13:43:21;1.13;;;0.60;;
7653;SDS011;3869;48.406;10.774;2022-10-14T13:45:53;0.60;;;0.60;;
7653;SDS011;3869;48.406;10.774;2022-10-14T13:48:27;1.63;;;0.60;;
7653;SDS011;3869;48.406;10.774;2022-10-14T13:51:05;0.60;;;0.60;;
7653;SDS011;3869;48.406;10.774;2022-10-14T13:54:07;0.70;;;0.70;;
7653;SDS011;3869;48.406;10.774;2022-10-14T13:56:40;0.60;;;0.60;;
7653;SDS011;3869;48.406;10.774;2022-10-14T13:59:17;1.00;;;0.90;;
7653;SDS011;3869;48.406;10.774;2022-10-14T14:02:10;0.60;;;0.60;;
7653;SDS011;3869;48.406;10.774;2022-10-14T14:04:41;0.93;;;0.93;;
7653;SDS011;3869;48.406;10.774;2022-10-14T14:07:15;0.70;;;0.70;;
7653;SDS011;3869;48.406;10.774;2022-10-14T14:10:07;0.90;;;0.90;;
7653;SDS011;3869;48.406;10.774;2022-10-14T14:12:39;1.07;;;1.07;;
7653;SDS011;3869;48.406;10.774;2022-10-14T14:15:12;0.80;;;0.80;;
7653;SDS011;3869;48.406;10.774;2022-10-14T14:17:46;1.20;;;1.20;;
7653;SDS011;3869;48.406;10.774;2022-10-14T14:20:15;0.90;;;0.80;;
7653;SDS011;3869;48.406;10.774;2022-10-14T14:22:48;0.90;;;0.90;;
7653;SDS011;3869;48.406;10.774;2022-10-14T14:25:21;0.80;;;0.80;;
7653;SDS011;3869;48.406;10.774;2022-10-14T14:28:11;1.33;;;0.80;;
7653;SDS011;3869;48.406;10.774;2022-10-14T14:30:45;1.30;;;1.20;;
7653;SDS011;3869;48.406;10.774;2022-10-14T14:33:21;1.13;;;1.03;;
7653;SDS011;3869;48.406;10.774;2022-10-14T14:35:55;1.13;;;0.93;;
7653;SDS011;3869;48.406;10.774;2022-10-14T14:38:27;1.47;;;1.10;;
7653;SDS011;3869;48.406;10.774;2022-10-14T14:41:00;0.70;;;0.70;;
7653;SDS011;3869;48.406;10.774;2022-10-14T14:43:29;0.70;;;0.70;;
7653;SDS011;3869;48.406;10.774;2022-10-14T14:46:05;0.70;;;0.70;;
7653;SDS011;3869;48.406;10.774;2022-10-14T14:48:33;0.90;;;0.83;;
7653;SDS011;3869;48.406;10.774;2022-10-14T14:51:03;9.30;;;0.70;;
7653;SDS011;3869;48.406;10.774;2022-10-14T14:53:36;1.23;;;1.17;;
7653;SDS011;3869;48.406;10.774;2022-10-14T14:56:05;0.70;;;0.70;;
7653;SDS011;3869;48.406;10.774;2022-10-14T14:58:42;5.50;;;1.70;;
7653;SDS011;3869;48.406;10.774;2022-10-14T15:01:18;3.77;;;1.17;;
7653;SDS011;3869;48.406;10.774;2022-10-14T15:03:50;0.70;;;0.70;;
7653;SDS011;3869;48.406;10.774;2022-10-14T15:06:39;1.30;;;1.20;;
7653;SDS011;3869;48.406;10.774;2022-10-14T15:09:19;1.17;;;1.10;;
7653;SDS011;3869;48.406;10.774;2022-10-14T15:11:50;1.80;;;1.03;;
7653;SDS011;3869;48.406;10.774;2022-10-14T15:14:27;0.80;;;0.80;;
7653;SDS011;3869;48.406;10.774;2022-10-14T15:16:59;0.80;;;0.80;;
7653;SDS011;3869;48.406;10.774;2022-10-14T15:19:32;1.67;;;1.07;;
7653;SDS011;3869;48.406;10.774;2022-10-14T15:25:04;0.80;;;0.80;;
7653;SDS011;3869;48.406;10.774;2022-10-14T15:27:40;0.60;;;0.60;;
7653;SDS011;3869;48.406;10.774;2022-10-14T15:30:20;0.93;;;0.93;;
7653;SDS011;3869;48.406;10.774;2022-10-14T15:32:56;1.97;;;1.20;;
7653;SDS011;3869;48.406;10.774;2022-10-14T15:35:25;1.40;;;1.40;;
7653;SDS011;3869;48.406;10.774;2022-10-14T15:37:54;1.10;;;1.00;;
7653;SDS011;3869;48.406;10.774;2022-10-14T15:40:25;1.03;;;1.03;;
7653;SDS011;3869;48.406;10.774;2022-10-14T15:42:55;1.20;;;1.20;;
7653;SDS011;3869;48.406;10.774;2022-10-14T15:45:23;0.97;;;0.97;;
7653;SDS011;3869;48.406;10.774;2022-10-14T15:47:52;3.67;;;1.83;;
7653;SDS011;3869;48.406;10.774;2022-10-14T15:50:23;1.57;;;1.40;;
7653;SDS011;3869;48.406;10.774;2022-10-14T15:52:53;1.37;;;1.30;;